Terminal Aerodrome Forecast
Issued by NWS Sioux Falls, SD

Home | Current Version | Previous Version | Graphics & Text | Print | Product List | Glossary On
Versions: 1 2 3 4 5 6 7 8 9 10 11 12 13 14 15 16 17
000
FTUS43 KFSD 261733
TAFHON
TAF
KHON 261733Z 2618/2718 11010KT P6SM SCT025
     FM270000 12007KT P6SM SKC
     FM271100 13008KT 6SM BR SCT008 BKN200
     FM271500 16013G20KT P6SM SCT022 BKN150=

USA.gov is the U.S. government's official web portal to all federal, state and local government web resources and services.